This is the latest recevied weather packets stored in our database for station/object K1QL. If no packets are shown the sender has not sent any weather packets the latest 1 day(s).
| Time | Temp. | Humidity | Pressure | Rain* | Wind** | Luminosity | Snow |
|---|---|---|---|---|---|---|---|
| 1778081388 | 22.22° C | 54% | 1009.5 hPa | 0 mm | - | 507 W/m² | - |
| 1778080783 | 22.22° C | 56% | 1009.7 hPa | 0 mm | - | 626 W/m² | - |
| 1778078965 | 21.11° C | 57% | 1009.6 hPa | 0 mm | - | 391 W/m² | - |
| 1778076546 | 21.11° C | 57% | 1009.6 hPa | 0 mm | - | 325 W/m² | - |
| 1778075636 | 20.56° C | 61% | 1009.6 hPa | 0 mm | - | 389 W/m² | - |
| 1778074726 | 20.56° C | 60% | 1009.5 hPa | 0 mm | - | 345 W/m² | - |
| 1778074119 | 20.56° C | 61% | 1010 hPa | 0 mm | - | 489 W/m² | - |
| 1778073816 | 20.56° C | 62% | 1010.1 hPa | 0 mm | - | 576 W/m² | - |
| 1778072908 | 20.56° C | 63% | 1010.3 hPa | 0 mm | - | 343 W/m² | - |
| 1778072302 | 20° C | 65% | 1010.2 hPa | 0 mm | - | 262 W/m² | - |
| 1778069883 | 18.33° C | 70% | 1010.3 hPa | 0 mm | - | 173 W/m² | - |
| 1778069277 | 18.33° C | 71% | 1010.1 hPa | 0 mm | - | 300 W/m² | - |
| 1778068672 | 17.78° C | 73% | 1010.3 hPa | 0 mm | - | 292 W/m² | - |
| 1778067765 | 16.67° C | 78% | 1010.5 hPa | 0 mm | - | 92 W/m² | - |
| 1778065950 | 16.67° C | 78% | 1010.7 hPa | 0 mm | - | 122 W/m² | - |
| 1778065646 | 16.67° C | 76% | 1010.6 hPa | 0 mm | - | 142 W/m² | - |
| 1778065344 | 16.67° C | 77% | 1010.6 hPa | 0 mm | - | 136 W/m² | - |
| 1778065040 | 16.11° C | 79% | 1010.5 hPa | 0 mm | - | 133 W/m² | - |
| 1778064737 | 15.56° C | 80% | 1010.7 hPa | 0 mm | - | 95 W/m² | - |
| 1778061158 | 15.56° C | 80% | 1010.3 hPa | 0 mm | - | 5 W/m² | - |
| 1778060855 | 15.56° C | 80% | 1010.3 hPa | 0 mm | - | 5 W/m² | - |
| 1778060553 | 15.56° C | 80% | 1010.5 hPa | 0 mm | - | 5 W/m² | - |
| 1778059646 | 15.56° C | 79% | 1010.5 hPa | 0 mm | - | 1 W/m² | - |
| 1778059041 | 15.56° C | 79% | 1010.6 hPa | 0 mm | - | 0 W/m² | - |
| 1778058738 | 15.56° C | 78% | 1010.5 hPa | 0 mm | - | 0 W/m² | - |
* Rain latest hour (hover to see other rain measurements)
** Current wind speed in m/s (hover to see current wind gust speed)